KEET

Details ICAO KEET (EET)
Name SHELBY CO
Region United States
Timezone America/Chicago (UTC-5.0)
Plans Departing 15
Arriving 8
Stats Elevation 587 ft / 179 m (AMSL)
Location 33.177786° -86.783200°
Runways 1
Magnetic Variation 3.447° W
Sunrise 2018-05-24 10:43:30 UTC / 2018-05-24 05:43:30 Local
Sunset 2018-05-25 00:47:21 UTC / 2018-05-24 19:47:21 Local
Advertisement - Login to hide

Runways

ID Width Length Bearing (true) Bearing (mag) Surface Threshold Offset Overrun Length
15 75 ft / 23 m 5,012 ft / 1,528 m 157.32° 160.77° Asphalt 0 ft / 0 m 0 ft / 0 m
33 75 ft / 23 m 5,012 ft / 1,528 m 337.32° 340.77° Asphalt 0 ft / 0 m 0 ft / 0 m

Map

Weather


0- 5 10 15 20 25 30 35+ Temperature / ° C

Clouds and Precipitation
Forecast for 2018-05-25 00:00 UTC. Updated 2 hours ago

Ground ~20,000 ft ~40,000 ft Winds

METAR

KEET 250053Z AUTO 00000KT 10SM CLR 22/21 A3003 RMK AO2 SLP160 T02170206

TAF

KEET 242335Z 2500/2524 00000KT P6SM OVC250 FM250800 00000KT 4SM BR BKN015 BKN250 FM251500 13003KT P6SM -RA OVC050 PROB30 2516/2522 TSRA BKN050CB BKN250

Frequencies

Recorded 134.32 MHz ASOS
Approach 123.80 MHz BIRMINGHAM APP/DEP
Unicom 122.70 MHz CTAF/UNICOM
Warning: Do not use this data for real-world aviation or navigation. No guarantee of current accuracy is given.